createdAt,value
2022-12-08T00:01:32.596Z,3.67
2022-12-08T00:04:01.981Z,3.47
2022-12-08T00:06:48.565Z,3.60
2022-12-08T00:09:24.924Z,3.40
2022-12-08T00:11:55.716Z,3.77
2022-12-08T00:14:32.633Z,3.50
2022-12-08T00:17:01.481Z,3.80
2022-12-08T00:19:29.749Z,3.30
2022-12-08T00:21:58.145Z,3.43
2022-12-08T00:24:31.092Z,3.53
2022-12-08T00:26:59.049Z,3.93
2022-12-08T00:29:26.941Z,3.80
2022-12-08T00:31:56.243Z,3.10
2022-12-08T00:34:24.251Z,3.33
2022-12-08T00:36:52.159Z,3.43
2022-12-08T00:39:20.113Z,3.23
2022-12-08T00:42:05.929Z,3.63
2022-12-08T00:44:33.898Z,3.70
2022-12-08T00:47:03.129Z,3.03
2022-12-08T00:49:31.048Z,3.20
2022-12-08T00:51:58.924Z,3.23
2022-12-08T00:54:26.864Z,3.20
2022-12-08T00:56:54.781Z,2.93
2022-12-08T00:59:22.647Z,2.53
2022-12-08T01:01:50.719Z,3.10
2022-12-08T01:04:21.224Z,2.93
2022-12-08T01:06:49.601Z,2.60
2022-12-08T01:09:19.027Z,2.83
2022-12-08T01:11:47.192Z,3.53
2022-12-08T01:14:15.611Z,3.13
2022-12-08T01:16:44.061Z,3.63
2022-12-08T01:19:13.172Z,3.33
2022-12-08T01:21:42.738Z,3.40
2022-12-08T01:24:13.065Z,3.27
2022-12-08T01:26:41.453Z,3.17
2022-12-08T01:29:09.506Z,3.77
2022-12-08T01:31:37.655Z,3.93
2022-12-08T01:34:06.072Z,3.93
2022-12-08T01:36:37.041Z,3.40
2022-12-08T01:39:08.411Z,4.00
2022-12-08T01:41:38.563Z,4.37
2022-12-08T01:44:39.119Z,3.10
2022-12-08T01:47:07.079Z,3.60
2022-12-08T01:49:36.855Z,3.90
2022-12-08T01:52:11.887Z,3.97
2022-12-08T01:54:47.259Z,4.00
2022-12-08T01:57:21.652Z,3.50
2022-12-08T01:59:55.591Z,3.70
2022-12-08T02:02:25.172Z,3.27
2022-12-08T02:04:53.168Z,3.40
2022-12-08T02:07:22.875Z,3.00
2022-12-08T02:09:54.071Z,3.53
2022-12-08T02:12:22.187Z,3.93
2022-12-08T02:14:50.180Z,3.53
2022-12-08T02:17:34.627Z,3.00
2022-12-08T02:20:32.163Z,3.20
2022-12-08T02:23:07.659Z,3.20
2022-12-08T02:25:47.983Z,3.47
2022-12-08T02:28:48.839Z,3.47
2022-12-08T02:31:28.095Z,3.20
2022-12-08T02:34:15.972Z,3.30
2022-12-08T02:36:55.759Z,3.33
2022-12-08T02:39:34.251Z,3.47
2022-12-08T02:42:09.554Z,3.53
2022-12-08T02:44:42.583Z,2.80
2022-12-08T02:47:15.021Z,3.00
2022-12-08T02:49:44.339Z,3.50
2022-12-08T02:52:43.058Z,3.10
2022-12-08T02:55:19.032Z,3.10
2022-12-08T02:58:06.186Z,3.97
2022-12-08T03:00:44.497Z,3.80
2022-12-08T03:03:25.755Z,3.50
2022-12-08T03:06:06.553Z,3.00
2022-12-08T03:08:39.938Z,3.33
2022-12-08T03:11:12.604Z,3.10
2022-12-08T03:13:43.259Z,2.90
2022-12-08T03:16:15.630Z,3.50
2022-12-08T03:18:49.063Z,2.83
2022-12-08T03:21:20.427Z,3.10
2022-12-08T03:23:51.978Z,2.87
2022-12-08T03:26:24.026Z,2.83
2022-12-08T03:28:51.990Z,2.60
2022-12-08T03:31:22.189Z,2.97
2022-12-08T03:33:53.135Z,3.00
2022-12-08T03:36:23.155Z,2.60
2022-12-08T03:38:53.735Z,2.93
2022-12-08T03:41:23.078Z,2.60
2022-12-08T03:43:52.641Z,2.70
2022-12-08T03:48:48.925Z,3.27
2022-12-08T03:51:17.916Z,3.83
2022-12-08T03:53:48.045Z,2.80
2022-12-08T03:56:20.966Z,3.23
2022-12-08T03:58:48.902Z,3.40
2022-12-08T04:01:17.681Z,3.60
2022-12-08T04:03:45.591Z,3.10
2022-12-08T04:06:13.565Z,3.03
2022-12-08T04:08:41.777Z,2.90
2022-12-08T04:11:11.577Z,3.00
2022-12-08T04:13:41.341Z,2.90
2022-12-08T04:16:09.867Z,3.17
2022-12-08T04:18:37.822Z,3.43
2022-12-08T04:21:05.988Z,2.93
2022-12-08T04:23:33.878Z,3.00
2022-12-08T04:26:01.767Z,2.80
2022-12-08T04:28:31.034Z,2.80
2022-12-08T04:30:59.035Z,2.83
2022-12-08T04:33:26.981Z,2.60
2022-12-08T04:35:54.931Z,3.13
2022-12-08T04:38:22.968Z,2.60
2022-12-08T04:40:50.917Z,3.07
2022-12-08T04:43:18.840Z,2.97
2022-12-08T04:45:48.221Z,2.97
2022-12-08T04:48:16.446Z,3.00
2022-12-08T04:50:46.172Z,3.37
2022-12-08T04:53:14.997Z,3.17
2022-12-08T04:55:44.792Z,3.33
2022-12-08T04:58:14.733Z,2.63
2022-12-08T05:00:42.867Z,2.97
2022-12-08T05:03:12.587Z,3.77
2022-12-08T05:05:40.484Z,2.97
2022-12-08T05:08:08.573Z,3.40
2022-12-08T05:10:37.901Z,3.30
2022-12-08T05:13:05.844Z,3.10
2022-12-08T05:15:33.860Z,3.20
2022-12-08T05:18:01.779Z,2.97
2022-12-08T05:20:31.036Z,3.30
2022-12-08T05:22:58.948Z,3.57
2022-12-08T05:25:26.849Z,3.50
2022-12-08T05:28:06.122Z,3.17
2022-12-08T05:30:42.632Z,3.30
2022-12-08T05:33:10.711Z,3.60
2022-12-08T05:35:39.996Z,3.70
2022-12-08T05:38:08.245Z,3.97
2022-12-08T05:40:38.004Z,4.57
2022-12-08T05:43:05.928Z,3.67
2022-12-08T05:45:34.051Z,5.57
2022-12-08T05:48:01.999Z,4.00
2022-12-08T05:50:29.913Z,4.83
2022-12-08T05:52:59.131Z,4.10
2022-12-08T05:55:27.054Z,3.50
2022-12-08T05:57:54.947Z,3.30
2022-12-08T06:00:23.127Z,3.60
2022-12-08T06:02:51.147Z,3.87
2022-12-08T06:05:19.138Z,3.50
2022-12-08T06:07:47.062Z,3.17
2022-12-08T06:10:16.375Z,3.43
2022-12-08T06:12:44.535Z,3.57
2022-12-08T06:15:12.623Z,3.77
2022-12-08T06:17:40.479Z,3.73
2022-12-08T06:20:09.381Z,4.27
2022-12-08T06:22:37.834Z,3.70
2022-12-08T06:25:09.845Z,4.57
2022-12-08T06:27:39.557Z,3.53
2022-12-08T06:30:08.936Z,4.97
2022-12-08T06:32:38.483Z,4.47
2022-12-08T06:35:07.215Z,5.07
2022-12-08T06:37:35.150Z,4.70
2022-12-08T06:40:03.636Z,4.57
2022-12-08T06:42:47.316Z,5.70
2022-12-08T06:45:18.567Z,8.40
2022-12-08T06:47:46.542Z,6.60
2022-12-08T06:50:14.998Z,7.50
2022-12-08T06:52:54.335Z,7.70
2022-12-08T06:55:59.254Z,7.70
2022-12-08T06:58:16.922Z,7.63
2022-12-08T07:00:46.459Z,7.40
2022-12-08T07:03:14.934Z,7.10
2022-12-08T07:05:42.836Z,6.33
2022-12-08T07:08:11.416Z,7.57
2022-12-08T07:10:39.385Z,8.67
2022-12-08T07:13:07.341Z,8.70
2022-12-08T07:15:35.258Z,10.00
2022-12-08T07:18:04.705Z,8.43
2022-12-08T07:20:32.633Z,9.50
2022-12-08T07:23:00.534Z,9.70
2022-12-08T07:25:28.646Z,8.70
2022-12-08T07:27:56.587Z,9.70
2022-12-08T07:30:24.475Z,9.80
2022-12-08T07:32:52.476Z,10.37
2022-12-08T07:35:23.107Z,9.87
2022-12-08T07:37:51.231Z,9.77
2022-12-08T07:40:19.341Z,9.83
2022-12-08T07:42:47.243Z,9.63
2022-12-08T07:45:15.182Z,11.00
2022-12-08T07:47:43.074Z,11.10
2022-12-08T07:50:11.193Z,9.97
2022-12-08T07:52:40.428Z,9.33
2022-12-08T07:55:09.281Z,11.60
2022-12-08T07:57:37.154Z,10.97
2022-12-08T08:00:06.366Z,10.27
2022-12-08T08:02:34.594Z,9.43
2022-12-08T08:05:02.920Z,9.50
2022-12-08T08:07:32.286Z,10.00
2022-12-08T08:10:01.644Z,8.77
2022-12-08T08:12:31.702Z,8.73
2022-12-08T08:15:01.116Z,7.63
2022-12-08T08:17:29.724Z,7.70
2022-12-08T08:19:58.224Z,8.00
2022-12-08T08:22:26.425Z,7.07
2022-12-08T08:24:54.865Z,8.20
2022-12-08T08:27:25.086Z,8.17
2022-12-08T08:29:53.012Z,7.10
2022-12-08T08:32:21.635Z,5.97
2022-12-08T08:34:49.524Z,6.23
2022-12-08T08:37:17.610Z,6.37
2022-12-08T08:39:45.606Z,7.00
2022-12-08T08:42:13.495Z,6.83
2022-12-08T08:44:42.724Z,6.80
2022-12-08T08:47:10.688Z,6.43
2022-12-08T08:49:38.927Z,7.40
2022-12-08T08:52:07.577Z,7.80
2022-12-08T08:54:35.617Z,7.30
2022-12-08T08:57:03.684Z,14.97
2022-12-08T08:59:31.672Z,9.27
2022-12-08T09:02:00.982Z,9.73
2022-12-08T09:04:29.057Z,9.43
2022-12-08T09:06:57.064Z,10.87
2022-12-08T09:09:24.958Z,12.87
2022-12-08T09:11:52.841Z,52.33
2022-12-08T09:14:21.032Z,31.37
2022-12-08T09:16:48.953Z,10.90
2022-12-08T09:19:18.375Z,10.57
2022-12-08T09:21:46.348Z,10.60
2022-12-08T09:24:16.503Z,13.53
2022-12-08T09:26:45.089Z,12.60
2022-12-08T09:29:14.641Z,12.60
2022-12-08T09:31:43.145Z,11.70
2022-12-08T09:34:12.288Z,10.40
2022-12-08T09:36:41.891Z,11.60
2022-12-08T09:39:09.845Z,10.63
2022-12-08T09:41:46.405Z,11.43
2022-12-08T09:44:45.999Z,11.10
2022-12-08T09:47:30.636Z,10.90
2022-12-08T09:50:07.552Z,11.93
2022-12-08T09:52:42.459Z,12.03
2022-12-08T09:55:19.032Z,12.00
2022-12-08T09:57:56.242Z,10.43
2022-12-08T10:00:24.648Z,9.40
2022-12-08T10:02:52.748Z,10.67
2022-12-08T10:05:21.786Z,12.10
2022-12-08T10:08:04.698Z,11.80
2022-12-08T10:10:40.164Z,11.20
2022-12-08T10:13:17.672Z,12.10
2022-12-08T10:15:50.890Z,11.03
2022-12-08T10:18:20.463Z,14.60
2022-12-08T10:20:50.898Z,16.80
2022-12-08T10:23:30.878Z,13.27
2022-12-08T10:26:02.886Z,13.57
2022-12-08T10:28:32.072Z,13.57
2022-12-08T10:31:00.065Z,15.37
2022-12-08T10:33:29.137Z,16.57
2022-12-08T10:35:59.252Z,15.23
2022-12-08T10:38:32.814Z,16.60
2022-12-08T10:41:05.851Z,14.97
2022-12-08T10:43:35.360Z,14.10
2022-12-08T10:46:11.880Z,13.60
2022-12-08T10:48:49.688Z,14.57
2022-12-08T10:51:26.615Z,14.77
2022-12-08T10:53:56.185Z,13.90
2022-12-08T10:56:28.526Z,14.97
2022-12-08T10:59:12.878Z,15.13
2022-12-08T11:01:42.567Z,17.10
2022-12-08T11:04:16.307Z,15.67
2022-12-08T11:06:44.948Z,14.30
2022-12-08T11:09:31.695Z,14.70
2022-12-08T11:12:00.968Z,14.47
2022-12-08T11:14:31.154Z,16.00
2022-12-08T11:17:06.826Z,15.50
2022-12-08T11:19:38.684Z,16.07
2022-12-08T11:22:22.721Z,15.37
2022-12-08T11:25:02.354Z,15.90
2022-12-08T11:27:30.346Z,17.07
2022-12-08T11:29:58.228Z,17.80
2022-12-08T11:32:26.116Z,17.47
2022-12-08T11:34:58.369Z,17.47
2022-12-08T11:37:34.617Z,17.47
2022-12-08T11:40:08.039Z,16.67
2022-12-08T11:42:44.540Z,15.73
2022-12-08T11:45:18.426Z,17.37
2022-12-08T11:47:55.618Z,16.53
2022-12-08T11:50:29.407Z,18.37
2022-12-08T11:52:59.497Z,17.33
2022-12-08T11:55:38.951Z,15.90
2022-12-08T11:58:15.533Z,17.87
2022-12-08T12:00:43.547Z,17.77
2022-12-08T12:03:23.501Z,17.30
2022-12-08T12:06:18.224Z,17.83
2022-12-08T12:09:01.459Z,18.93
2022-12-08T12:11:56.176Z,17.70
2022-12-08T12:14:47.380Z,17.40
2022-12-08T12:17:36.332Z,16.60
2022-12-08T12:20:16.316Z,16.17
2022-12-08T12:22:47.739Z,15.40
2022-12-08T12:25:22.108Z,16.10
2022-12-08T12:27:57.139Z,17.40
2022-12-08T12:30:27.404Z,16.47
2022-12-08T12:32:59.288Z,15.03
2022-12-08T12:35:35.467Z,14.23
2022-12-08T12:38:28.304Z,16.43
2022-12-08T12:41:02.196Z,15.77
2022-12-08T12:43:33.790Z,16.27
2022-12-08T12:46:42.621Z,16.77
2022-12-08T12:49:48.747Z,16.47
2022-12-08T12:52:44.090Z,16.83
2022-12-08T12:55:23.519Z,18.67
2022-12-08T12:57:54.295Z,17.60
2022-12-08T13:00:25.376Z,17.83
2022-12-08T13:02:55.288Z,19.43
2022-12-08T13:05:26.646Z,16.57
2022-12-08T13:07:57.812Z,22.40
2022-12-08T13:10:27.713Z,22.00
2022-12-08T13:13:08.466Z,34.20
2022-12-08T13:15:40.250Z,60.70
2022-12-08T13:18:17.567Z,60.30
2022-12-08T13:20:51.422Z,24.80
2022-12-08T13:23:45.252Z,23.17
2022-12-08T13:26:23.510Z,21.87
2022-12-08T13:29:21.052Z,19.57
2022-12-08T13:31:53.283Z,21.93
2022-12-08T13:34:26.730Z,21.43
2022-12-08T13:37:02.110Z,23.47
2022-12-08T13:39:34.923Z,25.00
2022-12-08T13:42:08.102Z,31.80
2022-12-08T13:45:20.183Z,23.73
2022-12-08T13:47:37.190Z,29.33
2022-12-08T13:53:49.632Z,33.37
2022-12-08T13:58:41.842Z,30.17
2022-12-08T14:01:14.887Z,29.67
2022-12-08T14:04:12.777Z,26.27
2022-12-08T14:06:40.119Z,29.80
2022-12-08T14:09:13.713Z,26.80
2022-12-08T14:11:44.846Z,27.50
2022-12-08T14:14:32.825Z,28.93
2022-12-08T14:17:07.971Z,18.47
2022-12-08T14:19:37.322Z,18.60
2022-12-08T14:22:12.855Z,19.90
2022-12-08T14:24:41.648Z,20.20
2022-12-08T14:27:14.530Z,24.57
2022-12-08T14:29:46.202Z,24.63
2022-12-08T14:32:33.073Z,26.63
2022-12-08T14:35:13.447Z,24.27
2022-12-08T14:37:44.482Z,19.70
2022-12-08T14:40:23.695Z,20.40
2022-12-08T14:42:54.280Z,28.97
2022-12-08T14:45:22.417Z,27.33
2022-12-08T14:47:51.207Z,20.27
2022-12-08T14:50:40.428Z,20.33
2022-12-08T14:53:15.055Z,19.97
2022-12-08T14:55:46.145Z,19.13
2022-12-08T14:58:19.745Z,20.97
2022-12-08T15:00:49.693Z,34.10
2022-12-08T15:03:18.678Z,41.33
2022-12-08T15:05:52.549Z,45.97
2022-12-08T15:08:20.573Z,41.90
2022-12-08T15:11:08.604Z,44.53
2022-12-08T15:13:36.507Z,53.43
2022-12-08T15:16:19.386Z,80.03
2022-12-08T15:19:01.964Z,57.27
2022-12-08T15:21:34.364Z,49.20
2022-12-08T15:24:02.318Z,38.43
2022-12-08T15:26:33.411Z,37.03
2022-12-08T15:29:12.660Z,33.17
2022-12-08T15:31:40.582Z,43.87
2022-12-08T15:34:08.541Z,38.50
2022-12-08T15:36:38.177Z,32.80
2022-12-08T15:39:07.437Z,29.97
2022-12-08T15:41:35.480Z,29.43
2022-12-08T15:44:03.414Z,28.43
2022-12-08T15:46:31.348Z,27.53
2022-12-08T15:48:59.365Z,37.17
2022-12-08T15:51:27.225Z,32.47
2022-12-08T15:53:56.457Z,29.03
2022-12-08T15:56:28.496Z,36.03
2022-12-08T15:58:57.968Z,30.47
2022-12-08T16:01:26.977Z,28.93
2022-12-08T16:09:39.383Z,28.50
2022-12-08T16:12:48.367Z,33.30
2022-12-08T16:18:07.647Z,28.00
2022-12-08T16:21:05.974Z,28.53
2022-12-08T16:23:41.630Z,29.10
2022-12-08T16:26:35.449Z,24.63
2022-12-08T16:29:02.333Z,34.40
2022-12-08T16:31:30.322Z,80.40
2022-12-08T16:33:58.262Z,145.43
2022-12-08T16:36:26.161Z,92.07
2022-12-08T16:38:54.085Z,37.80
2022-12-08T16:41:40.789Z,34.20
2022-12-08T16:44:08.695Z,38.80
2022-12-08T16:46:37.233Z,69.40
2022-12-08T16:49:08.731Z,39.30
2022-12-08T16:51:36.718Z,43.00
2022-12-08T16:54:04.659Z,40.37
2022-12-08T16:56:33.931Z,42.43
2022-12-08T16:59:02.657Z,34.13
2022-12-08T17:01:30.669Z,35.70
2022-12-08T17:04:29.778Z,27.90
2022-12-08T17:06:46.795Z,31.07
2022-12-08T17:09:14.952Z,32.13
2022-12-08T17:11:44.280Z,28.47
2022-12-08T17:14:13.279Z,31.27
2022-12-08T17:16:41.361Z,26.93
2022-12-08T17:19:09.861Z,24.13
2022-12-08T17:21:37.794Z,24.97
2022-12-08T17:24:05.929Z,26.57
2022-12-08T17:26:33.877Z,28.30
2022-12-08T17:29:04.619Z,24.57
2022-12-08T17:31:33.603Z,25.53
2022-12-08T17:34:02.636Z,23.97
2022-12-08T17:36:30.897Z,23.73
2022-12-08T17:39:00.592Z,25.97
2022-12-08T17:41:28.710Z,24.67
2022-12-08T17:43:56.691Z,25.83
2022-12-08T17:46:26.406Z,26.43
2022-12-08T17:48:54.397Z,22.30
2022-12-08T17:51:22.312Z,27.37
2022-12-08T17:53:50.196Z,28.23
2022-12-08T17:56:20.378Z,29.27
2022-12-08T17:58:52.902Z,29.40
2022-12-08T18:01:22.603Z,31.63
2022-12-08T18:03:52.211Z,29.60
2022-12-08T18:06:20.260Z,25.40
2022-12-08T18:08:48.317Z,24.40
2022-12-08T18:11:18.445Z,24.77
2022-12-08T18:13:46.909Z,24.37
2022-12-08T18:16:15.227Z,24.90
2022-12-08T18:18:43.304Z,26.57
2022-12-08T18:21:12.676Z,29.57
2022-12-08T18:23:41.616Z,34.27
2022-12-08T18:26:11.763Z,33.00
2022-12-08T18:28:40.197Z,28.23
2022-12-08T18:31:10.477Z,27.30
2022-12-08T18:33:39.920Z,22.20
2022-12-08T18:36:09.936Z,21.07
2022-12-08T18:38:39.979Z,18.77
2022-12-08T18:41:09.044Z,18.47
2022-12-08T18:43:37.887Z,16.83
2022-12-08T18:46:09.368Z,15.77
2022-12-08T18:48:38.627Z,16.40
2022-12-08T18:51:10.289Z,15.03
2022-12-08T18:53:40.165Z,14.77
2022-12-08T18:56:09.315Z,14.33
2022-12-08T18:58:37.192Z,14.63
2022-12-08T19:01:05.213Z,15.87
2022-12-08T19:03:33.136Z,15.07
2022-12-08T19:06:04.620Z,15.70
2022-12-08T19:08:32.598Z,16.17
2022-12-08T19:11:01.886Z,15.87
2022-12-08T19:13:30.483Z,15.97
2022-12-08T19:15:58.459Z,17.60
2022-12-08T19:18:26.409Z,15.90
2022-12-08T19:20:56.814Z,17.03
2022-12-08T19:23:24.947Z,17.43
2022-12-08T19:25:52.830Z,17.50
2022-12-08T19:28:22.212Z,18.00
2022-12-08T19:30:50.126Z,18.77
2022-12-08T19:33:18.354Z,17.67
2022-12-08T19:35:52.179Z,17.93
2022-12-08T19:38:20.710Z,17.80
2022-12-08T19:41:06.093Z,19.37
2022-12-08T19:43:52.582Z,17.93
2022-12-08T19:46:20.665Z,17.93
2022-12-08T19:48:48.741Z,19.67
2022-12-08T19:51:16.645Z,18.17
2022-12-08T19:53:47.842Z,19.90
2022-12-08T19:56:16.117Z,19.00
2022-12-08T19:58:45.365Z,20.20
2022-12-08T20:01:13.323Z,20.70
2022-12-08T20:03:41.322Z,18.77
2022-12-08T20:06:15.550Z,17.80
2022-12-08T20:08:48.970Z,18.23
2022-12-08T20:11:18.423Z,18.37
2022-12-08T20:13:48.436Z,16.80
2022-12-08T20:16:17.750Z,18.03
2022-12-08T20:18:47.759Z,16.90
2022-12-08T20:21:15.725Z,17.70
2022-12-08T20:23:45.413Z,18.57
2022-12-08T20:26:17.059Z,19.83
2022-12-08T20:28:45.271Z,19.10
2022-12-08T20:31:20.090Z,18.53
2022-12-08T20:33:48.369Z,21.00
2022-12-08T20:36:18.697Z,19.00
2022-12-08T20:38:46.847Z,18.47
2022-12-08T20:41:16.033Z,19.73
2022-12-08T20:43:44.120Z,20.00
2022-12-08T20:46:13.915Z,20.10
2022-12-08T20:48:43.668Z,18.20
2022-12-08T20:51:14.768Z,19.33
2022-12-08T20:53:42.777Z,19.57
2022-12-08T20:56:15.743Z,20.43
2022-12-08T20:58:44.082Z,20.00
2022-12-08T21:01:13.159Z,18.27
2022-12-08T21:03:41.704Z,19.87
2022-12-08T21:06:11.233Z,18.83
2022-12-08T21:08:40.006Z,22.90
2022-12-08T21:11:08.895Z,19.80
2022-12-08T21:13:38.216Z,22.90
2022-12-08T21:16:09.213Z,22.43
2022-12-08T21:18:39.696Z,18.83
2022-12-08T21:21:11.996Z,20.43
2022-12-08T21:23:40.520Z,20.27
2022-12-08T21:26:16.937Z,19.97
2022-12-08T21:28:45.372Z,21.60
2022-12-08T21:31:17.065Z,18.60
2022-12-08T21:33:45.461Z,17.23
2022-12-08T21:36:17.454Z,17.70
2022-12-08T21:38:46.522Z,17.30
2022-12-08T21:41:16.189Z,16.53
2022-12-08T21:43:44.192Z,19.00
2022-12-08T21:46:17.333Z,21.07
2022-12-08T21:48:45.463Z,20.23
2022-12-08T21:51:14.864Z,18.20
2022-12-08T21:53:43.045Z,18.93
2022-12-08T21:56:11.446Z,18.27
2022-12-08T21:58:40.243Z,18.03
2022-12-08T22:01:09.413Z,18.43
2022-12-08T22:03:37.914Z,20.40
2022-12-08T22:06:07.063Z,20.77
2022-12-08T22:08:36.482Z,18.50
2022-12-08T22:11:04.961Z,18.37
2022-12-08T22:13:35.424Z,18.70
2022-12-08T22:16:05.575Z,19.50
2022-12-08T22:18:34.667Z,18.67
2022-12-08T22:21:03.046Z,17.73
2022-12-08T22:23:31.209Z,18.37
2022-12-08T22:26:02.098Z,17.90
2022-12-08T22:28:33.884Z,17.60
2022-12-08T22:31:02.248Z,16.57
2022-12-08T22:33:30.684Z,17.67
2022-12-08T22:36:02.222Z,16.87
2022-12-08T22:38:33.404Z,18.93
2022-12-08T22:41:05.619Z,17.47
2022-12-08T22:43:36.693Z,18.10
2022-12-08T22:46:11.786Z,19.37
2022-12-08T22:48:40.153Z,21.77
2022-12-08T22:51:08.696Z,18.83
2022-12-08T22:53:37.055Z,18.50
2022-12-08T22:56:07.507Z,18.40
2022-12-08T22:58:36.093Z,19.70
2022-12-08T23:01:04.264Z,19.00
2022-12-08T23:03:32.575Z,22.53
2022-12-08T23:06:00.763Z,21.43
2022-12-08T23:08:28.861Z,19.23
2022-12-08T23:10:56.905Z,19.43
2022-12-08T23:13:26.555Z,20.57
2022-12-08T23:15:54.806Z,20.37
2022-12-08T23:18:23.150Z,24.93
2022-12-08T23:20:51.296Z,24.23
2022-12-08T23:23:19.193Z,23.83
2022-12-08T23:25:47.309Z,20.90
2022-12-08T23:31:58.420Z,19.87
2022-12-08T23:34:26.803Z,22.30
2022-12-08T23:36:55.207Z,20.77
2022-12-08T23:39:24.858Z,20.57
2022-12-08T23:41:53.404Z,19.97
2022-12-08T23:44:21.908Z,19.50
2022-12-08T23:46:50.394Z,19.03
2022-12-08T23:49:21.597Z,19.10
2022-12-08T23:51:49.968Z,18.43
2022-12-08T23:54:18.772Z,18.27
2022-12-08T23:56:46.904Z,19.50
2022-12-08T23:59:14.865Z,18.53
